sensor_id;sensor_type;location;lat;lon;timestamp;pressure;altitude;pressure_sealevel;temperature;humidity
52511;BME280;63918;51.700;17.998;2022-12-29T00:02:27;99644.17;;;5.48;97.23
52511;BME280;63918;51.700;17.998;2022-12-29T00:04:53;99639.99;;;5.50;96.37
52511;BME280;63918;51.700;17.998;2022-12-29T00:07:20;99634.98;;;5.53;96.17
52511;BME280;63918;51.700;17.998;2022-12-29T00:09:46;99627.12;;;5.52;96.25
52511;BME280;63918;51.700;17.998;2022-12-29T00:12:13;99623.41;;;5.53;96.17
52511;BME280;63918;51.700;17.998;2022-12-29T00:14:39;99620.39;;;5.52;96.25
52511;BME280;63918;51.700;17.998;2022-12-29T00:17:24;99619.06;;;5.56;95.98
52511;BME280;63918;51.700;17.998;2022-12-29T00:19:51;99615.05;;;5.52;95.94
52511;BME280;63918;51.700;17.998;2022-12-29T00:22:36;99618.81;;;5.50;96.39
52511;BME280;63918;51.700;17.998;2022-12-29T00:25:22;99616.69;;;5.48;96.60
52511;BME280;63918;51.700;17.998;2022-12-29T00:28:10;99606.29;;;5.55;95.46
52511;BME280;63918;51.700;17.998;2022-12-29T00:31:03;99594.63;;;5.62;94.24
52511;BME280;63918;51.700;17.998;2022-12-29T00:33:49;99568.59;;;5.71;92.76
52511;BME280;63918;51.700;17.998;2022-12-29T00:36:37;99548.50;;;5.71;92.82
52511;BME280;63918;51.700;17.998;2022-12-29T00:39:17;99548.05;;;5.67;92.71
52511;BME280;63918;51.700;17.998;2022-12-29T00:42:05;99582.77;;;5.60;93.95
52511;BME280;63918;51.700;17.998;2022-12-29T00:45:04;99585.91;;;5.65;93.76
52511;BME280;63918;51.700;17.998;2022-12-29T00:47:31;99571.91;;;5.66;93.29
52511;BME280;63918;51.700;17.998;2022-12-29T00:49:57;99565.92;;;5.64;93.92
52511;BME280;63918;51.700;17.998;2022-12-29T00:52:23;99557.66;;;5.61;93.88
52511;BME280;63918;51.700;17.998;2022-12-29T00:54:50;99562.98;;;5.67;93.82
52511;BME280;63918;51.700;17.998;2022-12-29T00:57:16;99573.40;;;5.60;94.93
52511;BME280;63918;51.700;17.998;2022-12-29T00:59:43;99574.55;;;5.66;94.42
52511;BME280;63918;51.700;17.998;2022-12-29T01:02:09;99569.98;;;5.67;93.66
52511;BME280;63918;51.700;17.998;2022-12-29T01:04:37;99574.42;;;5.62;94.85
52511;BME280;63918;51.700;17.998;2022-12-29T01:07:03;99568.02;;;5.61;94.95
52511;BME280;63918;51.700;17.998;2022-12-29T01:09:31;99565.89;;;5.67;93.69
52511;BME280;63918;51.700;17.998;2022-12-29T01:15:50;99566.05;;;5.59;94.85
52511;BME280;63918;51.700;17.998;2022-12-29T01:18:17;99555.30;;;5.62;94.22
52511;BME280;63918;51.700;17.998;2022-12-29T01:20:44;99562.17;;;5.67;93.50
52511;BME280;63918;51.700;17.998;2022-12-29T01:23:10;99558.15;;;5.73;92.81
52511;BME280;63918;51.700;17.998;2022-12-29T01:25:37;99551.76;;;5.65;93.71
52511;BME280;63918;51.700;17.998;2022-12-29T01:28:03;99556.11;;;5.65;93.97
52511;BME280;63918;51.700;17.998;2022-12-29T01:30:30;99566.14;;;5.55;94.49
52511;BME280;63918;51.700;17.998;2022-12-29T01:32:58;99565.28;;;5.53;95.03
52511;BME280;63918;51.700;17.998;2022-12-29T01:35:25;99559.31;;;5.56;94.53
52511;BME280;63918;51.700;17.998;2022-12-29T01:37:52;99555.72;;;5.49;95.14
52511;BME280;63918;51.700;17.998;2022-12-29T01:40:19;99556.27;;;5.64;93.57
52511;BME280;63918;51.700;17.998;2022-12-29T01:42:46;99553.40;;;5.60;93.92
52511;BME280;63918;51.700;17.998;2022-12-29T01:45:14;99553.16;;;5.55;94.90
52511;BME280;63918;51.700;17.998;2022-12-29T01:47:53;99552.16;;;5.61;93.98
52511;BME280;63918;51.700;17.998;2022-12-29T01:50:36;99546.32;;;5.65;93.40
52511;BME280;63918;51.700;17.998;2022-12-29T01:53:10;99534.29;;;5.75;91.91
52511;BME280;63918;51.700;17.998;2022-12-29T01:55:44;99535.00;;;5.67;92.91
52511;BME280;63918;51.700;17.998;2022-12-29T01:58:14;99525.58;;;5.68;92.70
52511;BME280;63918;51.700;17.998;2022-12-29T02:00:44;99517.13;;;5.73;92.25
52511;BME280;63918;51.700;17.998;2022-12-29T02:03:11;99512.78;;;5.74;92.04
52511;BME280;63918;51.700;17.998;2022-12-29T02:06:06;99509.17;;;5.77;91.76
52511;BME280;63918;51.700;17.998;2022-12-29T02:08:30;99503.19;;;5.74;92.03
52511;BME280;63918;51.700;17.998;2022-12-29T02:10:59;99497.73;;;5.81;91.42
52511;BME280;63918;51.700;17.998;2022-12-29T02:13:27;99494.84;;;5.60;93.37
52511;BME280;63918;51.700;17.998;2022-12-29T02:19:24;99497.14;;;5.56;93.58
52511;BME280;63918;51.700;17.998;2022-12-29T02:27:40;99488.05;;;5.64;92.58
52511;BME280;63918;51.700;17.998;2022-12-29T02:38:08;99477.42;;;5.83;90.71
52511;BME280;63918;51.700;17.998;2022-12-29T02:40:46;99463.08;;;5.84;90.38
52511;BME280;63918;51.700;17.998;2022-12-29T02:46:10;99460.29;;;5.87;89.90
52511;BME280;63918;51.700;17.998;2022-12-29T02:52:03;99460.35;;;5.88;90.35
52511;BME280;63918;51.700;17.998;2022-12-29T02:54:32;99463.17;;;5.96;89.82
52511;BME280;63918;51.700;17.998;2022-12-29T02:57:29;99461.91;;;5.92;90.44
52511;BME280;63918;51.700;17.998;2022-12-29T03:00:08;99462.29;;;5.88;90.82
52511;BME280;63918;51.700;17.998;2022-12-29T03:11:02;99448.55;;;5.94;90.57
52511;BME280;63918;51.700;17.998;2022-12-29T03:13:36;99447.11;;;5.98;89.73
52511;BME280;63918;51.700;17.998;2022-12-29T03:16:38;99445.73;;;5.85;90.64
52511;BME280;63918;51.700;17.998;2022-12-29T03:19:14;99444.63;;;5.93;88.87
52511;BME280;63918;51.700;17.998;2022-12-29T03:21:51;99445.39;;;5.93;88.75
52511;BME280;63918;51.700;17.998;2022-12-29T03:24:41;99442.14;;;5.98;88.67
52511;BME280;63918;51.700;17.998;2022-12-29T03:27:13;99436.04;;;5.93;88.53
52511;BME280;63918;51.700;17.998;2022-12-29T03:29:56;99435.73;;;5.98;88.11
52511;BME280;63918;51.700;17.998;2022-12-29T03:32:28;99442.47;;;5.98;88.12
52511;BME280;63918;51.700;17.998;2022-12-29T03:34:58;99440.21;;;6.01;87.94
52511;BME280;63918;51.700;17.998;2022-12-29T03:37:29;99437.73;;;5.96;88.20
52511;BME280;63918;51.700;17.998;2022-12-29T03:39:57;99433.20;;;6.06;86.82
52511;BME280;63918;51.700;17.998;2022-12-29T03:42:26;99434.60;;;5.94;87.70
52511;BME280;63918;51.700;17.998;2022-12-29T03:44:56;99433.30;;;5.96;87.61
52511;BME280;63918;51.700;17.998;2022-12-29T03:47:24;99434.11;;;5.94;87.98
52511;BME280;63918;51.700;17.998;2022-12-29T03:49:51;99428.94;;;5.96;87.87
52511;BME280;63918;51.700;17.998;2022-12-29T03:52:18;99426.94;;;5.99;87.86
52511;BME280;63918;51.700;17.998;2022-12-29T03:54:44;99425.39;;;6.07;87.28
52511;BME280;63918;51.700;17.998;2022-12-29T03:57:11;99412.11;;;6.03;86.52
52511;BME280;63918;51.700;17.998;2022-12-29T03:59:37;99427.07;;;6.12;86.53
52511;BME280;63918;51.700;17.998;2022-12-29T04:02:04;99421.79;;;6.20;85.63
52511;BME280;63918;51.700;17.998;2022-12-29T04:04:31;99421.84;;;6.17;86.41
52511;BME280;63918;51.700;17.998;2022-12-29T04:06:57;99424.91;;;6.13;86.40
52511;BME280;63918;51.700;17.998;2022-12-29T04:09:24;99427.77;;;6.21;85.50
52511;BME280;63918;51.700;17.998;2022-12-29T04:11:50;99423.99;;;6.23;85.55
52511;BME280;63918;51.700;17.998;2022-12-29T04:14:17;99418.02;;;6.28;84.65
52511;BME280;63918;51.700;17.998;2022-12-29T04:16:43;99425.16;;;6.33;83.93
52511;BME280;63918;51.700;17.998;2022-12-29T04:19:10;99423.51;;;6.23;85.29
52511;BME280;63918;51.700;17.998;2022-12-29T04:21:36;99430.95;;;6.24;84.75
52511;BME280;63918;51.700;17.998;2022-12-29T04:24:03;99436.52;;;6.26;84.46
52511;BME280;63918;51.700;17.998;2022-12-29T04:26:33;99433.70;;;6.19;85.25
52511;BME280;63918;51.700;17.998;2022-12-29T04:29:00;99426.96;;;6.13;85.82
52511;BME280;63918;51.700;17.998;2022-12-29T04:31:26;99419.98;;;6.01;87.52
52511;BME280;63918;51.700;17.998;2022-12-29T04:33:53;99412.89;;;5.98;87.74
52511;BME280;63918;51.700;17.998;2022-12-29T04:36:19;99407.11;;;5.93;88.85
52511;BME280;63918;51.700;17.998;2022-12-29T04:38:45;99410.23;;;5.98;88.05
52511;BME280;63918;51.700;17.998;2022-12-29T04:41:12;99406.40;;;6.06;86.92
52511;BME280;63918;51.700;17.998;2022-12-29T04:43:38;99403.77;;;6.00;89.18
52511;BME280;63918;51.700;17.998;2022-12-29T04:46:05;99412.66;;;6.01;88.67
52511;BME280;63918;51.700;17.998;2022-12-29T04:48:32;99405.92;;;5.95;89.51
52511;BME280;63918;51.700;17.998;2022-12-29T04:50:58;99405.17;;;5.99;89.05
52511;BME280;63918;51.700;17.998;2022-12-29T04:53:25;99404.73;;;5.96;89.96
52511;BME280;63918;51.700;17.998;2022-12-29T04:55:52;99404.21;;;5.85;91.98
52511;BME280;63918;51.700;17.998;2022-12-29T04:58:19;99400.08;;;5.65;94.80
52511;BME280;63918;51.700;17.998;2022-12-29T05:00:46;99402.23;;;5.63;94.78
52511;BME280;63918;51.700;17.998;2022-12-29T05:03:12;99398.60;;;5.57;96.31
52511;BME280;63918;51.700;17.998;2022-12-29T05:05:39;99397.33;;;5.43;99.38
52511;BME280;63918;51.700;17.998;2022-12-29T05:08:06;99402.94;;;5.44;99.25
52511;BME280;63918;51.700;17.998;2022-12-29T05:10:32;99404.13;;;5.48;98.87
52511;BME280;63918;51.700;17.998;2022-12-29T05:12:59;99399.91;;;5.41;99.84
52511;BME280;63918;51.700;17.998;2022-12-29T05:15:26;99399.05;;;5.40;99.89
52511;BME280;63918;51.700;17.998;2022-12-29T05:21:16;99402.17;;;5.39;99.97
52511;BME280;63918;51.700;17.998;2022-12-29T05:23:42;99405.89;;;5.45;98.29
52511;BME280;63918;51.700;17.998;2022-12-29T05:26:09;99413.14;;;5.48;97.14
52511;BME280;63918;51.700;17.998;2022-12-29T05:28:36;99411.09;;;5.50;96.73
52511;BME280;63918;51.700;17.998;2022-12-29T05:31:02;99406.68;;;5.54;95.19
52511;BME280;63918;51.700;17.998;2022-12-29T05:33:29;99406.63;;;5.54;95.53
52511;BME280;63918;51.700;17.998;2022-12-29T05:35:55;99398.11;;;5.55;94.71
52511;BME280;63918;51.700;17.998;2022-12-29T05:38:22;99390.47;;;5.54;95.55
52511;BME280;63918;51.700;17.998;2022-12-29T05:40:49;99389.44;;;5.53;95.45
52511;BME280;63918;51.700;17.998;2022-12-29T05:43:16;99383.91;;;5.60;93.82
52511;BME280;63918;51.700;17.998;2022-12-29T05:45:42;99378.48;;;5.66;92.85
52511;BME280;63918;51.700;17.998;2022-12-29T05:48:08;99373.25;;;5.68;92.46
52511;BME280;63918;51.700;17.998;2022-12-29T05:50:35;99363.60;;;5.70;92.05
52511;BME280;63918;51.700;17.998;2022-12-29T05:53:24;99358.48;;;5.63;91.87
52511;BME280;63918;51.700;17.998;2022-12-29T05:55:50;99363.01;;;5.60;92.38
52511;BME280;63918;51.700;17.998;2022-12-29T05:58:17;99363.39;;;5.68;90.92
52511;BME280;63918;51.700;17.998;2022-12-29T06:00:44;99353.53;;;5.70;90.89
52511;BME280;63918;51.700;17.998;2022-12-29T06:03:11;99356.33;;;5.73;90.77
52511;BME280;63918;51.700;17.998;2022-12-29T06:05:37;99352.30;;;5.79;90.41
52511;BME280;63918;51.700;17.998;2022-12-29T06:08:04;99357.95;;;5.75;90.77
52511;BME280;63918;51.700;17.998;2022-12-29T06:10:31;99363.44;;;5.95;87.88
52511;BME280;63918;51.700;17.998;2022-12-29T06:12:58;99356.54;;;5.98;88.11
52511;BME280;63918;51.700;17.998;2022-12-29T06:15:24;99358.31;;;5.99;88.42
52511;BME280;63918;51.700;17.998;2022-12-29T06:17:51;99353.52;;;5.98;88.42
52511;BME280;63918;51.700;17.998;2022-12-29T06:20:17;99354.39;;;6.04;86.99
52511;BME280;63918;51.700;17.998;2022-12-29T06:22:44;99359.39;;;6.11;86.06
52511;BME280;63918;51.700;17.998;2022-12-29T06:25:11;99363.65;;;6.14;86.28
52511;BME280;63918;51.700;17.998;2022-12-29T06:27:38;99360.59;;;6.12;86.50
52511;BME280;63918;51.700;17.998;2022-12-29T06:30:06;99367.80;;;6.20;85.73
52511;BME280;63918;51.700;17.998;2022-12-29T06:32:33;99366.23;;;6.20;85.74
52511;BME280;63918;51.700;17.998;2022-12-29T06:35:00;99368.83;;;6.30;84.05
52511;BME280;63918;51.700;17.998;2022-12-29T06:37:26;99367.47;;;6.31;84.56
52511;BME280;63918;51.700;17.998;2022-12-29T06:39:53;99365.52;;;6.35;83.39
52511;BME280;63918;51.700;17.998;2022-12-29T06:42:20;99362.86;;;6.39;82.41
52511;BME280;63918;51.700;17.998;2022-12-29T06:44:47;99354.67;;;6.38;82.80
52511;BME280;63918;51.700;17.998;2022-12-29T06:47:14;99358.73;;;6.35;83.02
52511;BME280;63918;51.700;17.998;2022-12-29T06:49:40;99359.48;;;6.33;82.77
52511;BME280;63918;51.700;17.998;2022-12-29T06:52:07;99363.02;;;6.43;81.52
52511;BME280;63918;51.700;17.998;2022-12-29T06:54:33;99353.70;;;6.44;81.76
52511;BME280;63918;51.700;17.998;2022-12-29T06:57:00;99358.34;;;6.41;81.91
52511;BME280;63918;51.700;17.998;2022-12-29T06:59:26;99353.79;;;6.46;81.41
52511;BME280;63918;51.700;17.998;2022-12-29T07:01:55;99353.18;;;6.53;81.04
52511;BME280;63918;51.700;17.998;2022-12-29T07:04:21;99357.30;;;6.49;81.17
52511;BME280;63918;51.700;17.998;2022-12-29T07:06:48;99365.38;;;6.52;81.22
52511;BME280;63918;51.700;17.998;2022-12-29T07:09:15;99360.04;;;6.53;81.37
52511;BME280;63918;51.700;17.998;2022-12-29T07:11:41;99370.77;;;6.49;81.47
52511;BME280;63918;51.700;17.998;2022-12-29T07:14:08;99369.36;;;6.57;80.69
52511;BME280;63918;51.700;17.998;2022-12-29T07:16:34;99373.15;;;6.60;80.00
52511;BME280;63918;51.700;17.998;2022-12-29T07:19:01;99378.92;;;6.57;80.61
52511;BME280;63918;51.700;17.998;2022-12-29T07:21:28;99381.39;;;6.59;80.31
52511;BME280;63918;51.700;17.998;2022-12-29T07:23:54;99377.45;;;6.59;80.32
52511;BME280;63918;51.700;17.998;2022-12-29T07:26:21;99379.29;;;6.58;80.39
52511;BME280;63918;51.700;17.998;2022-12-29T07:28:48;99379.34;;;6.62;79.82
52511;BME280;63918;51.700;17.998;2022-12-29T07:31:17;99370.71;;;6.61;80.05
52511;BME280;63918;51.700;17.998;2022-12-29T07:33:45;99373.83;;;6.67;80.02
52511;BME280;63918;51.700;17.998;2022-12-29T07:36:12;99368.64;;;6.67;80.62
52511;BME280;63918;51.700;17.998;2022-12-29T07:38:39;99369.99;;;6.63;81.05
52511;BME280;63918;51.700;17.998;2022-12-29T07:41:06;99368.73;;;6.68;80.41
52511;BME280;63918;51.700;17.998;2022-12-29T07:43:33;99366.95;;;6.70;80.51
52511;BME280;63918;51.700;17.998;2022-12-29T07:46:00;99358.09;;;6.70;80.42
52511;BME280;63918;51.700;17.998;2022-12-29T07:48:27;99357.51;;;6.73;79.98
52511;BME280;63918;51.700;17.998;2022-12-29T07:50:53;99360.67;;;6.77;80.86
52511;BME280;63918;51.700;17.998;2022-12-29T07:53:20;99362.82;;;6.80;80.21
52511;BME280;63918;51.700;17.998;2022-12-29T07:55:47;99369.18;;;6.83;79.55
52511;BME280;63918;51.700;17.998;2022-12-29T07:58:13;99367.14;;;6.81;80.67
52511;BME280;63918;51.700;17.998;2022-12-29T08:00:40;99366.95;;;6.88;80.31
52511;BME280;63918;51.700;17.998;2022-12-29T08:03:07;99374.50;;;6.92;81.06
52511;BME280;63918;51.700;17.998;2022-12-29T08:05:34;99378.23;;;6.93;79.98
52511;BME280;63918;51.700;17.998;2022-12-29T08:08:00;99375.19;;;6.93;79.41
52511;BME280;63918;51.700;17.998;2022-12-29T08:10:27;99376.38;;;6.96;79.97
52511;BME280;63918;51.700;17.998;2022-12-29T08:12:53;99378.92;;;6.93;80.38
52511;BME280;63918;51.700;17.998;2022-12-29T08:15:20;99376.98;;;6.89;80.68
52511;BME280;63918;51.700;17.998;2022-12-29T08:17:46;99385.39;;;6.97;79.39
52511;BME280;63918;51.700;17.998;2022-12-29T08:20:13;99381.59;;;6.99;79.64
52511;BME280;63918;51.700;17.998;2022-12-29T08:22:40;99374.17;;;7.02;79.68
52511;BME280;63918;51.700;17.998;2022-12-29T08:25:07;99372.83;;;7.06;79.30
52511;BME280;63918;51.700;17.998;2022-12-29T08:27:33;99371.88;;;7.09;80.51
52511;BME280;63918;51.700;17.998;2022-12-29T08:30:00;99366.45;;;7.17;79.24
52511;BME280;63918;51.700;17.998;2022-12-29T08:32:27;99371.81;;;7.26;78.79
52511;BME280;63918;51.700;17.998;2022-12-29T08:34:54;99373.27;;;7.40;78.73
52511;BME280;63918;51.700;17.998;2022-12-29T08:37:21;99368.29;;;7.39;78.98
52511;BME280;63918;51.700;17.998;2022-12-29T08:39:48;99362.33;;;7.33;79.17
52511;BME280;63918;51.700;17.998;2022-12-29T08:42:15;99358.08;;;7.28;79.41
52511;BME280;63918;51.700;17.998;2022-12-29T08:44:41;99357.56;;;7.24;79.54
52511;BME280;63918;51.700;17.998;2022-12-29T08:47:10;99360.81;;;7.33;78.84
52511;BME280;63918;51.700;17.998;2022-12-29T08:49:37;99365.91;;;7.38;78.85
52511;BME280;63918;51.700;17.998;2022-12-29T08:52:03;99373.70;;;7.49;78.74
52511;BME280;63918;51.700;17.998;2022-12-29T08:54:30;99369.65;;;7.57;78.38
52511;BME280;63918;51.700;17.998;2022-12-29T08:56:57;99369.91;;;7.59;78.37
52511;BME280;63918;51.700;17.998;2022-12-29T08:59:23;99368.67;;;7.66;78.32
52511;BME280;63918;51.700;17.998;2022-12-29T09:01:50;99359.11;;;7.72;78.73
52511;BME280;63918;51.700;17.998;2022-12-29T09:04:17;99361.35;;;7.77;77.72
52511;BME280;63918;51.700;17.998;2022-12-29T09:06:47;99358.56;;;7.80;76.88
52511;BME280;63918;51.700;17.998;2022-12-29T09:09:13;99355.56;;;7.69;78.73
52511;BME280;63918;51.700;17.998;2022-12-29T09:11:41;99352.73;;;7.81;78.16
52511;BME280;63918;51.700;17.998;2022-12-29T09:14:08;99354.92;;;7.90;76.76
52511;BME280;63918;51.700;17.998;2022-12-29T09:16:35;99363.15;;;7.94;77.11
52511;BME280;63918;51.700;17.998;2022-12-29T09:19:02;99358.39;;;7.95;76.90
52511;BME280;63918;51.700;17.998;2022-12-29T09:21:29;99360.03;;;8.01;76.65
52511;BME280;63918;51.700;17.998;2022-12-29T09:23:55;99358.70;;;8.05;77.40
52511;BME280;63918;51.700;17.998;2022-12-29T09:26:25;99353.11;;;8.01;77.87
52511;BME280;63918;51.700;17.998;2022-12-29T09:28:52;99358.43;;;7.90;79.38
52511;BME280;63918;51.700;17.998;2022-12-29T09:31:18;99361.55;;;7.99;77.73
52511;BME280;63918;51.700;17.998;2022-12-29T09:33:45;99361.48;;;8.02;78.55
52511;BME280;63918;51.700;17.998;2022-12-29T09:36:11;99367.02;;;8.04;78.10
52511;BME280;63918;51.700;17.998;2022-12-29T09:38:38;99369.00;;;8.08;77.66
52511;BME280;63918;51.700;17.998;2022-12-29T09:41:18;99363.51;;;8.12;77.76
52511;BME280;63918;51.700;17.998;2022-12-29T09:44:04;99366.55;;;8.18;77.67
52511;BME280;63918;51.700;17.998;2022-12-29T09:46:45;99354.73;;;8.14;78.15
52511;BME280;63918;51.700;17.998;2022-12-29T09:49:34;99360.89;;;8.22;77.52
52511;BME280;63918;51.700;17.998;2022-12-29T09:52:14;99362.36;;;8.28;77.03
52511;BME280;63918;51.700;17.998;2022-12-29T09:55:21;99359.00;;;8.30;77.14
52511;BME280;63918;51.700;17.998;2022-12-29T09:57:48;99360.42;;;8.26;76.30
52511;BME280;63918;51.700;17.998;2022-12-29T10:00:18;99357.41;;;8.32;76.62
52511;BME280;63918;51.700;17.998;2022-12-29T10:02:56;99361.90;;;8.32;76.95
52511;BME280;63918;51.700;17.998;2022-12-29T10:05:55;99358.42;;;8.39;76.18
52511;BME280;63918;51.700;17.998;2022-12-29T10:25:15;99338.64;;;8.47;75.76
52511;BME280;63918;51.700;17.998;2022-12-29T10:27:47;99338.77;;;8.60;75.73
52511;BME280;63918;51.700;17.998;2022-12-29T10:30:15;99329.86;;;8.63;75.62
52511;BME280;63918;51.700;17.998;2022-12-29T10:35:19;99333.93;;;8.76;75.95
52511;BME280;63918;51.700;17.998;2022-12-29T10:38:01;99338.41;;;8.81;75.82
52511;BME280;63918;51.700;17.998;2022-12-29T10:40:36;99330.69;;;8.77;75.37
52511;BME280;63918;51.700;17.998;2022-12-29T10:43:17;99320.45;;;8.89;76.44
52511;BME280;63918;51.700;17.998;2022-12-29T10:45:47;99321.70;;;8.94;75.40
52511;BME280;63918;51.700;17.998;2022-12-29T10:48:34;99320.05;;;8.96;76.29
52511;BME280;63918;51.700;17.998;2022-12-29T10:51:04;99323.46;;;9.13;75.43
52511;BME280;63918;51.700;17.998;2022-12-29T10:54:03;99324.85;;;9.10;73.82
52511;BME280;63918;51.700;17.998;2022-12-29T10:56:54;99323.70;;;9.26;73.50
52511;BME280;63918;51.700;17.998;2022-12-29T10:59:29;99323.56;;;9.30;73.78
52511;BME280;63918;51.700;17.998;2022-12-29T11:05:06;99314.94;;;9.45;72.97
52511;BME280;63918;51.700;17.998;2022-12-29T11:07:37;99310.69;;;9.68;71.84
52511;BME280;63918;51.700;17.998;2022-12-29T11:13:03;99308.85;;;9.94;72.36
52511;BME280;63918;51.700;17.998;2022-12-29T11:15:43;99303.71;;;9.60;72.48
52511;BME280;63918;51.700;17.998;2022-12-29T11:18:38;99304.65;;;9.59;73.52
52511;BME280;63918;51.700;17.998;2022-12-29T11:24:01;99299.55;;;9.77;72.37
52511;BME280;63918;51.700;17.998;2022-12-29T11:26:29;99299.87;;;9.73;72.20
52511;BME280;63918;51.700;17.998;2022-12-29T11:31:47;99295.81;;;9.75;73.34
52511;BME280;63918;51.700;17.998;2022-12-29T11:34:32;99296.23;;;9.81;72.73
52511;BME280;63918;51.700;17.998;2022-12-29T11:37:40;99290.31;;;9.80;72.66
52511;BME280;63918;51.700;17.998;2022-12-29T11:40:17;99292.45;;;9.72;72.95
52511;BME280;63918;51.700;17.998;2022-12-29T11:42:52;99289.21;;;9.75;73.86
52511;BME280;63918;51.700;17.998;2022-12-29T11:45:22;99292.23;;;9.69;74.13
52511;BME280;63918;51.700;17.998;2022-12-29T11:47:55;99288.70;;;9.73;75.38
52511;BME280;63918;51.700;17.998;2022-12-29T11:50:29;99293.13;;;9.71;74.50
52511;BME280;63918;51.700;17.998;2022-12-29T11:53:04;99285.14;;;9.68;74.28
52511;BME280;63918;51.700;17.998;2022-12-29T11:55:33;99287.41;;;9.75;75.15
52511;BME280;63918;51.700;17.998;2022-12-29T11:58:02;99284.95;;;9.80;73.57
52511;BME280;63918;51.700;17.998;2022-12-29T12:00:33;99277.59;;;9.76;74.30
52511;BME280;63918;51.700;17.998;2022-12-29T12:03:16;99282.99;;;9.77;74.33
52511;BME280;63918;51.700;17.998;2022-12-29T12:05:51;99287.86;;;9.82;73.94
52511;BME280;63918;51.700;17.998;2022-12-29T12:08:36;99277.71;;;9.79;73.52
52511;BME280;63918;51.700;17.998;2022-12-29T12:11:24;99275.59;;;9.78;74.07
52511;BME280;63918;51.700;17.998;2022-12-29T12:14:02;99268.88;;;9.78;75.16
52511;BME280;63918;51.700;17.998;2022-12-29T12:16:36;99274.98;;;9.76;74.04
52511;BME280;63918;51.700;17.998;2022-12-29T12:21:43;99282.02;;;9.81;74.19
52511;BME280;63918;51.700;17.998;2022-12-29T12:24:34;99277.21;;;9.81;74.32
52511;BME280;63918;51.700;17.998;2022-12-29T12:29:50;99274.61;;;9.95;73.59
52511;BME280;63918;51.700;17.998;2022-12-29T12:32:27;99275.95;;;9.80;73.99
52511;BME280;63918;51.700;17.998;2022-12-29T12:34:55;99272.30;;;9.68;74.49
52511;BME280;63918;51.700;17.998;2022-12-29T12:54:02;99264.66;;;9.74;73.25
52511;BME280;63918;51.700;17.998;2022-12-29T13:10:40;99264.96;;;9.18;77.80
52511;BME280;63918;51.700;17.998;2022-12-29T13:15:54;99268.60;;;9.33;76.76
52511;BME280;63918;51.700;17.998;2022-12-29T13:18:48;99266.41;;;9.19;76.30
52511;BME280;63918;51.700;17.998;2022-12-29T13:26:43;99270.73;;;8.93;77.33
52511;BME280;63918;51.700;17.998;2022-12-29T13:29:18;99271.27;;;8.85;77.90
52511;BME280;63918;51.700;17.998;2022-12-29T13:37:15;99285.16;;;8.62;79.10
52511;BME280;63918;51.700;17.998;2022-12-29T13:39:48;99283.21;;;8.71;78.14
52511;BME280;63918;51.700;17.998;2022-12-29T13:42:17;99284.42;;;8.61;78.87
52511;BME280;63918;51.700;17.998;2022-12-29T13:44:53;99282.02;;;8.58;79.09
52511;BME280;63918;51.700;17.998;2022-12-29T13:47:42;99277.91;;;8.57;79.25
52511;BME280;63918;51.700;17.998;2022-12-29T13:50:29;99278.68;;;8.65;78.82
52511;BME280;63918;51.700;17.998;2022-12-29T13:53:20;99283.75;;;8.58;79.44
52511;BME280;63918;51.700;17.998;2022-12-29T13:56:17;99280.73;;;8.60;79.85
52511;BME280;63918;51.700;17.998;2022-12-29T13:58:58;99274.77;;;8.61;79.77
52511;BME280;63918;51.700;17.998;2022-12-29T14:01:56;99285.07;;;8.46;81.13
52511;BME280;63918;51.700;17.998;2022-12-29T14:04:23;99284.85;;;8.47;81.15
52511;BME280;63918;51.700;17.998;2022-12-29T14:07:13;99290.59;;;8.46;81.06
52511;BME280;63918;51.700;17.998;2022-12-29T14:09:48;99285.53;;;8.38;82.06
52511;BME280;63918;51.700;17.998;2022-12-29T14:12:31;99282.89;;;8.42;81.84
52511;BME280;63918;51.700;17.998;2022-12-29T14:15:26;99285.23;;;8.60;80.64
52511;BME280;63918;51.700;17.998;2022-12-29T14:18:24;99286.43;;;8.51;81.09
52511;BME280;63918;51.700;17.998;2022-12-29T14:21:10;99292.99;;;8.44;81.23
52511;BME280;63918;51.700;17.998;2022-12-29T14:23:46;99294.88;;;8.28;83.01
52511;BME280;63918;51.700;17.998;2022-12-29T14:26:18;99295.98;;;8.34;82.43
52511;BME280;63918;51.700;17.998;2022-12-29T14:29:42;99297.20;;;8.29;82.37
52511;BME280;63918;51.700;17.998;2022-12-29T14:34:52;99302.24;;;8.39;81.62
52511;BME280;63918;51.700;17.998;2022-12-29T14:37:27;99297.06;;;8.27;82.36
52511;BME280;63918;51.700;17.998;2022-12-29T14:40:19;99304.54;;;8.12;83.78
52511;BME280;63918;51.700;17.998;2022-12-29T14:42:51;99305.90;;;8.11;83.80
52511;BME280;63918;51.700;17.998;2022-12-29T14:47:47;99300.09;;;8.02;84.24
52511;BME280;63918;51.700;17.998;2022-12-29T14:52:58;99306.31;;;8.14;83.30
52511;BME280;63918;51.700;17.998;2022-12-29T14:55:46;99298.19;;;8.02;84.30
52511;BME280;63918;51.700;17.998;2022-12-29T14:58:31;99299.66;;;8.07;84.06
52511;BME280;63918;51.700;17.998;2022-12-29T15:00:59;99296.27;;;7.87;85.41
52511;BME280;63918;51.700;17.998;2022-12-29T15:03:32;99300.45;;;7.85;85.91
52511;BME280;63918;51.700;17.998;2022-12-29T15:06:10;99301.59;;;7.78;86.24
52511;BME280;63918;51.700;17.998;2022-12-29T15:08:42;99305.35;;;7.95;84.92
52511;BME280;63918;51.700;17.998;2022-12-29T15:14:30;99293.79;;;7.79;86.36
52511;BME280;63918;51.700;17.998;2022-12-29T15:16:57;99292.05;;;7.77;86.61
52511;BME280;63918;51.700;17.998;2022-12-29T15:19:25;99299.19;;;7.94;85.15
52511;BME280;63918;51.700;17.998;2022-12-29T15:21:53;99298.46;;;7.84;85.79
52511;BME280;63918;51.700;17.998;2022-12-29T15:24:21;99299.41;;;7.67;87.21
52511;BME280;63918;51.700;17.998;2022-12-29T15:26:53;99299.70;;;7.64;87.66
52511;BME280;63918;51.700;17.998;2022-12-29T15:32:01;99296.52;;;7.75;86.92
52511;BME280;63918;51.700;17.998;2022-12-29T15:34:30;99298.80;;;7.68;87.55
52511;BME280;63918;51.700;17.998;2022-12-29T15:36:57;99300.17;;;7.65;88.02
52511;BME280;63918;51.700;17.998;2022-12-29T15:39:29;99304.02;;;7.72;87.66